sensor_id;sensor_type;location;lat;lon;timestamp;pressure;altitude;pressure_sealevel;temperature;humidity
7990;BME280;4040;42.848;23.034;2023-08-06T00:05:08;93809.81;;;17.62;100.00
7990;BME280;4040;42.848;23.034;2023-08-06T00:10:57;93809.06;;;17.61;100.00
7990;BME280;4040;42.848;23.034;2023-08-06T00:16:46;93791.97;;;17.46;100.00
7990;BME280;4040;42.848;23.034;2023-08-06T00:22:36;93812.41;;;17.27;100.00
7990;BME280;4040;42.848;23.034;2023-08-06T00:28:27;93793.63;;;17.29;100.00
7990;BME280;4040;42.848;23.034;2023-08-06T00:34:15;93782.16;;;17.25;100.00
7990;BME280;4040;42.848;23.034;2023-08-06T00:40:05;93785.59;;;17.49;100.00
7990;BME280;4040;42.848;23.034;2023-08-06T00:45:56;93781.25;;;17.28;100.00
7990;BME280;4040;42.848;23.034;2023-08-06T00:51:45;93802.84;;;17.46;100.00
7990;BME280;4040;42.848;23.034;2023-08-06T00:57:34;93756.66;;;17.66;100.00
7990;BME280;4040;42.848;23.034;2023-08-06T01:03:24;93751.38;;;17.77;100.00
7990;BME280;4040;42.848;23.034;2023-08-06T01:09:21;93787.25;;;17.32;100.00
7990;BME280;4040;42.848;23.034;2023-08-06T01:15:19;93766.34;;;17.53;100.00
7990;BME280;4040;42.848;23.034;2023-08-06T01:21:11;93735.44;;;17.70;100.00
7990;BME280;4040;42.848;23.034;2023-08-06T01:27:06;93758.56;;;17.60;100.00
7990;BME280;4040;42.848;23.034;2023-08-06T01:32:58;93771.94;;;17.78;100.00
7990;BME280;4040;42.848;23.034;2023-08-06T01:38:51;93743.34;;;17.68;100.00
7990;BME280;4040;42.848;23.034;2023-08-06T01:44:39;93734.88;;;17.66;100.00
7990;BME280;4040;42.848;23.034;2023-08-06T01:50:28;93735.09;;;17.48;100.00
7990;BME280;4040;42.848;23.034;2023-08-06T01:56:18;93728.72;;;17.51;100.00
7990;BME280;4040;42.848;23.034;2023-08-06T02:02:07;93728.63;;;17.46;100.00
7990;BME280;4040;42.848;23.034;2023-08-06T02:12:19;93697.22;;;17.79;100.00
7990;BME280;4040;42.848;23.034;2023-08-06T02:18:09;93699.31;;;17.55;100.00
7990;BME280;4040;42.848;23.034;2023-08-06T02:23:58;93701.59;;;17.42;100.00
7990;BME280;4040;42.848;23.034;2023-08-06T02:29:48;93694.25;;;17.63;100.00
7990;BME280;4040;42.848;23.034;2023-08-06T02:35:36;93726.16;;;17.62;100.00
7990;BME280;4040;42.848;23.034;2023-08-06T02:41:25;93741.09;;;17.52;100.00
7990;BME280;4040;42.848;23.034;2023-08-06T02:47:15;93739.97;;;17.59;100.00
7990;BME280;4040;42.848;23.034;2023-08-06T02:53:04;93723.59;;;17.73;100.00
7990;BME280;4040;42.848;23.034;2023-08-06T02:58:53;93723.59;;;17.73;100.00
7990;BME280;4040;42.848;23.034;2023-08-06T03:04:43;93716.13;;;17.68;100.00
7990;BME280;4040;42.848;23.034;2023-08-06T03:14:54;93737.69;;;17.57;100.00
7990;BME280;4040;42.848;23.034;2023-08-06T03:20:44;93705.16;;;17.83;100.00
7990;BME280;4040;42.848;23.034;2023-08-06T03:26:33;93696.66;;;17.75;100.00
7990;BME280;4040;42.848;23.034;2023-08-06T03:32:22;93696.72;;;17.81;100.00
7990;BME280;4040;42.848;23.034;2023-08-06T03:38:12;93694.78;;;17.81;100.00
7990;BME280;4040;42.848;23.034;2023-08-06T03:44:00;93699.34;;;17.90;100.00
7990;BME280;4040;42.848;23.034;2023-08-06T03:49:51;93689.88;;;17.85;100.00
7990;BME280;4040;42.848;23.034;2023-08-06T03:55:41;93715.16;;;17.71;100.00
7990;BME280;4040;42.848;23.034;2023-08-06T04:01:29;93727.47;;;17.52;100.00
7990;BME280;4040;42.848;23.034;2023-08-06T04:07:18;93735.09;;;17.48;100.00
7990;BME280;4040;42.848;23.034;2023-08-06T04:17:30;93756.66;;;17.66;100.00
7990;BME280;4040;42.848;23.034;2023-08-06T04:23:19;93765.75;;;17.78;100.00
7990;BME280;4040;42.848;23.034;2023-08-06T04:29:07;93774.56;;;17.87;100.00
7990;BME280;4040;42.848;23.034;2023-08-06T04:34:58;93778.78;;;17.88;100.00
7990;BME280;4040;42.848;23.034;2023-08-06T04:40:46;93771.09;;;18.01;100.00
7990;BME280;4040;42.848;23.034;2023-08-06T04:46:35;93770.31;;;18.00;100.00
7990;BME280;4040;42.848;23.034;2023-08-06T04:52:25;93774.72;;;18.12;100.00
7990;BME280;4040;42.848;23.034;2023-08-06T04:58:15;93779.09;;;18.24;100.00
7990;BME280;4040;42.848;23.034;2023-08-06T05:04:03;93778.06;;;18.36;100.00
7990;BME280;4040;42.848;23.034;2023-08-06T05:09:53;93776.44;;;18.44;100.00
7990;BME280;4040;42.848;23.034;2023-08-06T05:20:05;93766.56;;;18.67;100.00
7990;BME280;4040;42.848;23.034;2023-08-06T05:25:55;93777.69;;;18.29;100.00
7990;BME280;4040;42.848;23.034;2023-08-06T05:31:44;93791.09;;;18.47;100.00
7990;BME280;4040;42.848;23.034;2023-08-06T05:37:33;93789.47;;;18.75;100.00
7990;BME280;4040;42.848;23.034;2023-08-06T05:43:23;93797.31;;;19.78;100.00
7990;BME280;4040;42.848;23.034;2023-08-06T05:49:12;93770.47;;;22.27;100.00
7990;BME280;4040;42.848;23.034;2023-08-06T05:55:01;93746.56;;;21.83;100.00
7990;BME280;4040;42.848;23.034;2023-08-06T06:00:51;93755.00;;;21.69;100.00
7990;BME280;4040;42.848;23.034;2023-08-06T06:06:40;93768.41;;;21.50;100.00
7990;BME280;4040;42.848;23.034;2023-08-06T06:12:29;93780.69;;;21.71;100.00
7990;BME280;4040;42.848;23.034;2023-08-06T06:22:41;93778.19;;;22.50;100.00
7990;BME280;4040;42.848;23.034;2023-08-06T06:28:31;93790.09;;;22.80;100.00
7990;BME280;4040;42.848;23.034;2023-08-06T06:34:19;93803.81;;;23.48;100.00
7990;BME280;4040;42.848;23.034;2023-08-06T06:40:11;93783.47;;;25.70;100.00
7990;BME280;4040;42.848;23.034;2023-08-06T06:46:00;93777.03;;;28.81;100.00
7990;BME280;4040;42.848;23.034;2023-08-06T06:51:49;93769.47;;;30.31;86.21
7990;BME280;4040;42.848;23.034;2023-08-06T06:57:39;93777.03;;;30.30;78.93
7990;BME280;4040;42.848;23.034;2023-08-06T07:03:28;93777.72;;;26.81;95.76
7990;BME280;4040;42.848;23.034;2023-08-06T07:09:17;93791.47;;;26.24;100.00
7990;BME280;4040;42.848;23.034;2023-08-06T07:15:08;93786.53;;;27.31;95.20
7990;BME280;4040;42.848;23.034;2023-08-06T07:25:19;93805.84;;;27.83;78.57
7990;BME280;4040;42.848;23.034;2023-08-06T07:31:10;93816.09;;;27.36;88.39
7990;BME280;4040;42.848;23.034;2023-08-06T07:36:58;93812.03;;;26.41;95.80
7990;BME280;4040;42.848;23.034;2023-08-06T07:42:47;93810.66;;;27.57;91.89
7990;BME280;4040;42.848;23.034;2023-08-06T07:48:37;93806.41;;;28.97;81.91
7990;BME280;4040;42.848;23.034;2023-08-06T07:54:26;93802.19;;;30.10;72.86
7990;BME280;4040;42.848;23.034;2023-08-06T08:00:16;93825.78;;;28.02;82.27
7990;BME280;4040;42.848;23.034;2023-08-06T08:06:06;93819.84;;;26.06;100.00
7990;BME280;4040;42.848;23.034;2023-08-06T08:11:55;93809.06;;;27.35;89.04
7990;BME280;4040;42.848;23.034;2023-08-06T08:17:44;93803.75;;;27.11;90.01
7990;BME280;4040;42.848;23.034;2023-08-06T08:27:58;93795.25;;;31.21;68.74
7990;BME280;4040;42.848;23.034;2023-08-06T08:33:47;93791.53;;;31.19;58.89
7990;BME280;4040;42.848;23.034;2023-08-06T08:39:36;93770.00;;;31.89;58.21
7990;BME280;4040;42.848;23.034;2023-08-06T08:45:28;93784.19;;;33.37;56.72
7990;BME280;4040;42.848;23.034;2023-08-06T08:51:18;93781.34;;;34.05;53.51
7990;BME280;4040;42.848;23.034;2023-08-06T08:57:08;93789.59;;;32.94;54.48
7990;BME280;4040;42.848;23.034;2023-08-06T09:03:08;93784.44;;;31.33;54.72
7990;BME280;4040;42.848;23.034;2023-08-06T09:09:06;93784.31;;;34.07;51.66
7990;BME280;4040;42.848;23.034;2023-08-06T09:14:55;93777.41;;;34.08;50.45
7990;BME280;4040;42.848;23.034;2023-08-06T09:20:45;93761.75;;;34.49;49.35
7990;BME280;4040;42.848;23.034;2023-08-06T09:30:59;93754.09;;;35.40;44.95
7990;BME280;4040;42.848;23.034;2023-08-06T09:36:51;93753.56;;;35.70;46.64
7990;BME280;4040;42.848;23.034;2023-08-06T09:42:42;93741.56;;;39.01;41.98
7990;BME280;4040;42.848;23.034;2023-08-06T09:48:33;93750.31;;;37.22;41.35
7990;BME280;4040;42.848;23.034;2023-08-06T09:54:24;93749.94;;;32.22;50.96
7990;BME280;4040;42.848;23.034;2023-08-06T10:00:13;93754.06;;;31.12;56.12
7990;BME280;4040;42.848;23.034;2023-08-06T10:06:03;93759.88;;;29.46;59.38
7990;BME280;4040;42.848;23.034;2023-08-06T10:11:56;93774.56;;;28.29;64.93
7990;BME280;4040;42.848;23.034;2023-08-06T10:17:47;93755.03;;;28.14;64.74
7990;BME280;4040;42.848;23.034;2023-08-06T10:23:40;93775.34;;;27.96;59.97
7990;BME280;4040;42.848;23.034;2023-08-06T10:33:52;93782.00;;;27.67;66.93
7990;BME280;4040;42.848;23.034;2023-08-06T10:39:48;93787.31;;;27.91;68.24
7990;BME280;4040;42.848;23.034;2023-08-06T10:45:38;93791.03;;;28.14;63.35
7990;BME280;4040;42.848;23.034;2023-08-06T10:51:40;93790.84;;;29.50;61.63
7990;BME280;4040;42.848;23.034;2023-08-06T10:57:29;93791.66;;;29.37;60.01
7990;BME280;4040;42.848;23.034;2023-08-06T11:03:17;93791.06;;;28.35;63.86
7990;BME280;4040;42.848;23.034;2023-08-06T11:09:07;93786.81;;;26.63;66.66
7990;BME280;4040;42.848;23.034;2023-08-06T11:14:56;93792.25;;;26.94;66.67
7990;BME280;4040;42.848;23.034;2023-08-06T11:20:45;93752.19;;;27.01;67.53
7990;BME280;4040;42.848;23.034;2023-08-06T11:26:36;93788.00;;;26.93;69.08
7990;BME280;4040;42.848;23.034;2023-08-06T11:36:49;93782.28;;;27.30;67.52
7990;BME280;4040;42.848;23.034;2023-08-06T11:42:39;93781.03;;;27.31;67.50
7990;BME280;4040;42.848;23.034;2023-08-06T11:48:29;93776.34;;;27.13;67.41
7990;BME280;4040;42.848;23.034;2023-08-06T11:54:30;93766.31;;;27.36;68.64
7990;BME280;4040;42.848;23.034;2023-08-06T12:00:23;93762.91;;;27.04;66.37
7990;BME280;4040;42.848;23.034;2023-08-06T12:06:13;93773.78;;;26.76;66.93
7990;BME280;4040;42.848;23.034;2023-08-06T12:12:02;93772.94;;;27.33;67.21
7990;BME280;4040;42.848;23.034;2023-08-06T12:17:52;93768.34;;;28.16;64.28
7990;BME280;4040;42.848;23.034;2023-08-06T12:23:41;93773.28;;;27.63;63.31
7990;BME280;4040;42.848;23.034;2023-08-06T12:29:30;93764.09;;;26.26;69.36
7990;BME280;4040;42.848;23.034;2023-08-06T12:39:42;93775.44;;;25.54;71.53
7990;BME280;4040;42.848;23.034;2023-08-06T12:45:30;93767.38;;;26.55;70.66
7990;BME280;4040;42.848;23.034;2023-08-06T12:51:19;93774.28;;;26.75;64.06
7990;BME280;4040;42.848;23.034;2023-08-06T12:57:09;93768.94;;;26.20;67.68
7990;BME280;4040;42.848;23.034;2023-08-06T13:02:58;93771.38;;;25.92;72.49
7990;BME280;4040;42.848;23.034;2023-08-06T13:08:47;93768.56;;;26.41;74.66
7990;BME280;4040;42.848;23.034;2023-08-06T13:14:37;93763.56;;;26.84;71.57
7990;BME280;4040;42.848;23.034;2023-08-06T13:20:26;93757.06;;;26.56;72.83
7990;BME280;4040;42.848;23.034;2023-08-06T13:26:15;93770.69;;;26.36;71.29
7990;BME280;4040;42.848;23.034;2023-08-06T13:32:05;93744.56;;;25.92;70.48
7990;BME280;4040;42.848;23.034;2023-08-06T13:42:16;93775.09;;;26.13;72.66
7990;BME280;4040;42.848;23.034;2023-08-06T13:48:06;93750.38;;;25.89;71.94
7990;BME280;4040;42.848;23.034;2023-08-06T13:53:56;93754.13;;;26.36;68.92
7990;BME280;4040;42.848;23.034;2023-08-06T13:59:45;93754.31;;;26.25;69.46
7990;BME280;4040;42.848;23.034;2023-08-06T14:05:35;93761.44;;;26.33;69.50
7990;BME280;4040;42.848;23.034;2023-08-06T14:11:24;93759.84;;;26.25;68.97
7990;BME280;4040;42.848;23.034;2023-08-06T14:17:12;93770.00;;;26.17;71.07
7990;BME280;4040;42.848;23.034;2023-08-06T14:23:04;93772.28;;;26.00;70.83
7990;BME280;4040;42.848;23.034;2023-08-06T14:28:53;93765.09;;;26.10;73.29
7990;BME280;4040;42.848;23.034;2023-08-06T14:34:42;93763.63;;;26.22;68.73
7990;BME280;4040;42.848;23.034;2023-08-06T14:44:53;93737.94;;;26.14;68.89
7990;BME280;4040;42.848;23.034;2023-08-06T14:50:42;93763.22;;;26.18;68.84
7990;BME280;4040;42.848;23.034;2023-08-06T14:56:31;93754.84;;;25.92;70.57
7990;BME280;4040;42.848;23.034;2023-08-06T15:02:22;93756.50;;;25.82;72.92
7990;BME280;4040;42.848;23.034;2023-08-06T15:08:10;93761.06;;;25.61;73.11
7990;BME280;4040;42.848;23.034;2023-08-06T15:13:59;93757.09;;;25.75;72.14
7990;BME280;4040;42.848;23.034;2023-08-06T15:19:50;93741.72;;;25.79;70.82
7990;BME280;4040;42.848;23.034;2023-08-06T15:25:38;93741.75;;;25.61;71.77
7990;BME280;4040;42.848;23.034;2023-08-06T15:31:36;93738.50;;;25.75;72.25
7990;BME280;4040;42.848;23.034;2023-08-06T15:37:26;93750.97;;;25.82;67.65
7990;BME280;4040;42.848;23.034;2023-08-06T15:47:38;93774.75;;;25.48;66.07
7990;BME280;4040;42.848;23.034;2023-08-06T15:53:29;93767.19;;;25.11;68.00
7990;BME280;4040;42.848;23.034;2023-08-06T15:59:23;93779.50;;;24.86;67.96
7990;BME280;4040;42.848;23.034;2023-08-06T16:05:11;93786.09;;;25.02;69.06
7990;BME280;4040;42.848;23.034;2023-08-06T16:11:01;93788.19;;;25.14;70.16
7990;BME280;4040;42.848;23.034;2023-08-06T16:16:51;93800.84;;;25.04;69.99
7990;BME280;4040;42.848;23.034;2023-08-06T16:22:41;93802.09;;;24.79;69.70
7990;BME280;4040;42.848;23.034;2023-08-06T16:28:31;93814.81;;;24.58;67.93
7990;BME280;4040;42.848;23.034;2023-08-06T16:34:20;93831.63;;;24.55;70.12
7990;BME280;4040;42.848;23.034;2023-08-06T16:40:09;93826.50;;;24.70;69.93
7990;BME280;4040;42.848;23.034;2023-08-06T16:50:21;93845.53;;;24.68;73.69
7990;BME280;4040;42.848;23.034;2023-08-06T16:56:10;93857.63;;;24.24;73.33
7990;BME280;4040;42.848;23.034;2023-08-06T17:01:58;93869.06;;;23.99;75.15
7990;BME280;4040;42.848;23.034;2023-08-06T17:07:48;93885.88;;;23.79;75.45
7990;BME280;4040;42.848;23.034;2023-08-06T17:13:38;93896.19;;;23.62;74.92
7990;BME280;4040;42.848;23.034;2023-08-06T17:19:27;93897.22;;;23.59;73.50
7990;BME280;4040;42.848;23.034;2023-08-06T17:25:17;93899.00;;;23.46;76.27
7990;BME280;4040;42.848;23.034;2023-08-06T17:31:08;93915.50;;;23.46;77.71
7990;BME280;4040;42.848;23.034;2023-08-06T17:36:57;93934.56;;;23.22;79.10
7990;BME280;4040;42.848;23.034;2023-08-06T17:42:48;93935.84;;;22.93;83.07
7990;BME280;4040;42.848;23.034;2023-08-06T17:52:58;93962.91;;;21.98;100.00
7990;BME280;4040;42.848;23.034;2023-08-06T17:58:48;93961.09;;;21.78;100.00
7990;BME280;4040;42.848;23.034;2023-08-06T18:04:37;93977.00;;;21.74;100.00
7990;BME280;4040;42.848;23.034;2023-08-06T18:10:26;93980.34;;;21.42;100.00
7990;BME280;4040;42.848;23.034;2023-08-06T18:16:16;93982.19;;;21.19;100.00
7990;BME280;4040;42.848;23.034;2023-08-06T18:22:05;93990.94;;;21.23;100.00
7990;BME280;4040;42.848;23.034;2023-08-06T18:27:53;93992.84;;;21.12;100.00
7990;BME280;4040;42.848;23.034;2023-08-06T18:33:43;93993.47;;;20.65;100.00
7990;BME280;4040;42.848;23.034;2023-08-06T18:39:32;94000.44;;;20.66;100.00
7990;BME280;4040;42.848;23.034;2023-08-06T18:45:21;94008.69;;;20.21;100.00
7990;BME280;4040;42.848;23.034;2023-08-06T18:55:33;94031.25;;;19.96;100.00
7990;BME280;4040;42.848;23.034;2023-08-06T19:01:23;94022.78;;;19.74;100.00
7990;BME280;4040;42.848;23.034;2023-08-06T19:07:11;94158.47;;;19.97;100.00
7990;BME280;4040;42.848;23.034;2023-08-06T19:13:07;94201.88;;;18.88;100.00
7990;BME280;4040;42.848;23.034;2023-08-06T19:18:56;94228.13;;;18.15;100.00
7990;BME280;4040;42.848;23.034;2023-08-06T19:24:45;94230.81;;;16.73;100.00
7990;BME280;4040;42.848;23.034;2023-08-06T19:30:36;94257.19;;;16.36;100.00
7990;BME280;4040;42.848;23.034;2023-08-06T19:36:26;94302.53;;;16.09;100.00
7990;BME280;4040;42.848;23.034;2023-08-06T19:42:15;94313.19;;;15.94;100.00
7990;BME280;4040;42.848;23.034;2023-08-06T19:48:07;94318.72;;;15.82;100.00
7990;BME280;4040;42.848;23.034;2023-08-06T19:58:17;94320.69;;;15.81;100.00
7990;BME280;4040;42.848;23.034;2023-08-06T20:04:08;94314.66;;;15.86;100.00
7990;BME280;4040;42.848;23.034;2023-08-06T20:09:56;94317.66;;;15.79;100.00
7990;BME280;4040;42.848;23.034;2023-08-06T20:15:47;94314.38;;;15.84;100.00
7990;BME280;4040;42.848;23.034;2023-08-06T20:21:38;94311.34;;;15.82;100.00
7990;BME280;4040;42.848;23.034;2023-08-06T20:27:26;94282.19;;;15.74;100.00
7990;BME280;4040;42.848;23.034;2023-08-06T20:33:15;94288.38;;;15.74;100.00
7990;BME280;4040;42.848;23.034;2023-08-06T20:39:05;94315.53;;;15.74;100.00
7990;BME280;4040;42.848;23.034;2023-08-06T20:44:53;94300.47;;;15.82;100.00
7990;BME280;4040;42.848;23.034;2023-08-06T20:50:43;94319.53;;;15.91;100.00
7990;BME280;4040;42.848;23.034;2023-08-06T21:00:55;94326.47;;;15.92;100.00
7990;BME280;4040;42.848;23.034;2023-08-06T21:06:44;94321.34;;;15.94;100.00
7990;BME280;4040;42.848;23.034;2023-08-06T21:12:33;94320.16;;;15.95;100.00
7990;BME280;4040;42.848;23.034;2023-08-06T21:18:26;94316.47;;;15.89;100.00
7990;BME280;4040;42.848;23.034;2023-08-06T21:24:15;94342.25;;;15.54;100.00
7990;BME280;4040;42.848;23.034;2023-08-06T21:30:04;94363.66;;;15.52;100.00
7990;BME280;4040;42.848;23.034;2023-08-06T21:36:01;94365.06;;;15.57;100.00
7990;BME280;4040;42.848;23.034;2023-08-06T21:41:50;94363.66;;;15.52;100.00
7990;BME280;4040;42.848;23.034;2023-08-06T21:47:38;94361.38;;;15.29;100.00
7990;BME280;4040;42.848;23.034;2023-08-06T21:53:29;94360.53;;;15.20;100.00
7990;BME280;4040;42.848;23.034;2023-08-06T22:08:30;94363.78;;;14.94;100.00
7990;BME280;4040;42.848;23.034;2023-08-06T22:14:19;94366.09;;;14.83;100.00
7990;BME280;4040;42.848;23.034;2023-08-06T22:20:08;94377.50;;;14.78;100.00
7990;BME280;4040;42.848;23.034;2023-08-06T22:25:59;94363.56;;;14.88;100.00
7990;BME280;4040;42.848;23.034;2023-08-06T22:31:47;94351.72;;;14.95;100.00
7990;BME280;4040;42.848;23.034;2023-08-06T22:37:35;94362.56;;;14.73;100.00
7990;BME280;4040;42.848;23.034;2023-08-06T22:43:26;94362.75;;;14.79;100.00
7990;BME280;4040;42.848;23.034;2023-08-06T22:49:15;94383.25;;;14.80;100.00
7990;BME280;4040;42.848;23.034;2023-08-06T22:55:04;94384.88;;;14.65;100.00
7990;BME280;4040;42.848;23.034;2023-08-06T23:00:55;94379.72;;;14.58;100.00
7990;BME280;4040;42.848;23.034;2023-08-06T23:11:05;94370.88;;;14.79;100.00
7990;BME280;4040;42.848;23.034;2023-08-06T23:16:56;94368.09;;;14.70;100.00
7990;BME280;4040;42.848;23.034;2023-08-06T23:22:45;94361.78;;;15.07;100.00
7990;BME280;4040;42.848;23.034;2023-08-06T23:28:33;94370.94;;;15.22;100.00
7990;BME280;4040;42.848;23.034;2023-08-06T23:34:23;94362.84;;;14.88;100.00
7990;BME280;4040;42.848;23.034;2023-08-06T23:40:12;94372.72;;;14.69;100.00
7990;BME280;4040;42.848;23.034;2023-08-06T23:46:00;94379.81;;;14.67;100.00
7990;BME280;4040;42.848;23.034;2023-08-06T23:51:50;94396.78;;;14.80;100.00
7990;BME280;4040;42.848;23.034;2023-08-06T23:57:39;94394.81;;;14.93;100.00
